General Aviation Weather

Text Reports

Enter one or more of the following location identifiers separated by a space:

Zip Code, Four-Character ICAO or Three-Character IATA airport codes.

METAR - Aviation Routine Weather Report
KONL - O'Neill, Nebraska
Updated at 4:15 AM GMT on October 26, 2014 (11:15 PM CDT):
METAR KONL 260415Z AUTO 12009KT 10SM CLR 12/02 A3000 RMK AO2 T01240022
TAF - Terminal Area Forecast
KONL - O'Neill, Nebraska
Updated at 4:15 AM GMT on October 26, 2014 (11:15 PM CDT):
No TAF is currently available for this location.
Decoded:
No decoded TAF is available.
PIREP - Pilot Weather Report
KONL - O'Neill, Nebraska
Updated at 4:15 AM GMT on October 26, 2014 (11:15 PM CDT):
No PIREP is currently available for this location.
AIRMET - Airmens Meteorological Information
KONL - O'Neill, Nebraska
Updated at 4:15 AM GMT on October 26, 2014 (11:15 PM CDT):
No AIRMET is currently available for this location.
SIGMET - Significant Meteorological Information
KONL - O'Neill, Nebraska
Updated at 4:15 AM GMT on October 26, 2014 (11:15 PM CDT):
No SIGMET is currently available for this location.
NOTAM - Notice to Airmen
KONL - O'Neill, Nebraska
Updated at 4:15 AM GMT on October 26, 2014 (11:15 PM CDT):
No NOTAM is currently available for this location.
Forecast Area
KONL - O'Neill, Nebraska
Updated at 4:15 AM GMT on October 26, 2014 (11:15 PM CDT):
No NOTAM is currently available for this location.
Aviation Weather Maps